Latest Weather Observations for Flinders Reef

IDQ60801

Issued at 8:02 am EST Wednesday 1 April 2015 (issued every 30 minutes, with the page automatically refreshed every 10 minutes)

About weather observations | Map of weather stations | Latest weather observations for QLD | Other Formats
Station Details ID: 200783 Name: FLINDERS REEF Lat: -17.72 Lon: 148.45 Height: 2.6 m
Data from the previous 72 hours. | See also: Recent months at Flinders Reef
Date/Time
EST
Temp
°C
App
Temp
°C
Dew
Point
Rel
Hum
%
Delta-T
°C
Wind Press
QNH
hPa
Press
MSL
hPa
Rain
since 9 am
mm
Dir
 
Spd
km/h
Gust
km/h
Spd
kts
Gust
kts
01/08:00am - - - - - SSE 28 32 15 17 1014.0 - -
01/07:30am - - - - - SSE 28 32 15 17 1013.7 - -
01/07:24am - - - - - SSE 28 - 15 - - 1013.5 -
01/07:00am - - - - - SE 30 33 16 18 1013.4 - -
01/06:30am - - - - - SE 28 32 15 17 1012.9 - -
01/06:24am - - - - - SE 28 - 15 - - 1012.8 -
01/06:00am - - - - - SE 32 35 17 19 1012.8 - -
01/05:30am - - - - - SE 32 37 17 20 1012.7 - -
01/05:24am - - - - - SE 32 - 17 - - 1012.6 -
01/05:00am - - - - - SE 30 35 16 19 1012.5 - -
01/04:24am - - - - - SE 30 - 16 - - 1012.1 -
01/04:00am - - - - - SE 30 35 16 19 1012.3 - -
01/03:30am - - - - - SE 30 33 16 18 1012.2 - -
01/03:24am - - - - - SE 30 - 16 - - 1012.1 -
01/03:00am - - - - - SE 30 35 16 19 1012.4 - -
01/02:30am - - - - - SE 28 32 15 17 1012.4 - -
01/02:24am - - - - - SE 28 - 15 - - 1012.3 -
01/02:00am - - - - - SE 30 33 16 18 1012.7 - -
01/01:30am - - - - - SE 32 35 17 19 1013.0 - -
01/01:24am - - - - - SE 32 - 17 - - 1013.1 -
01/01:00am - - - - - SSE 32 35 17 19 1013.6 - -
01/12:30am - - - - - SE 30 37 16 20 1014.0 - -
01/12:24am - - - - - SE 30 - 16 - - 1014.0 -
01/12:00am - - - - - SE 32 39 17 21 1014.5 - -
 
Date/Time
EST
Temp
°C
App
Temp
°C
Dew
Point
Rel
Hum
%
Delta-T
°C
Wind Press
QNH
hPa
Press
MSL
hPa
Rain
since 9 am
mm
Dir
 
Spd
km/h
Gust
km/h
Spd
kts
Gust
kts
31/11:30pm - - - - - SE 33 39 18 21 1015.0 - -
31/11:24pm - - - - - SE 33 - 18 - - 1014.9 -
31/11:00pm - - - - - SE 32 39 17 21 1015.0 - -
31/10:30pm - - - - - SE 35 41 19 22 1015.0 - -
31/10:24pm - - - - - SE 35 - 19 - - 1014.9 -
31/10:00pm - - - - - SE 33 39 18 21 1015.0 - -
31/09:30pm - - - - - SE 35 41 19 22 1014.9 - -
31/09:24pm - - - - - SE 33 - 18 - - 1014.8 -
31/09:00pm - - - - - SE 35 39 19 21 1014.8 - -
31/08:30pm - - - - - SE 33 39 18 21 1014.6 - -
31/08:24pm - - - - - SE 33 - 18 - - 1014.5 -
31/08:00pm - - - - - SE 33 37 18 20 1014.4 - -
31/07:30pm - - - - - SE 32 37 17 20 1014.1 - -
31/07:24pm - - - - - SE 32 - 17 - - 1014.0 -
31/07:00pm - - - - - SE 33 39 18 21 1013.8 - -
31/06:30pm - - - - - SE 32 35 17 19 1013.3 - -
31/06:24pm - - - - - SE 32 - 17 - - 1013.2 -
31/06:00pm - - - - - SE 33 39 18 21 1013.0 - -
31/05:30pm - - - - - SE 32 35 17 19 1012.9 - -
31/05:24pm - - - - - SE 32 - 17 - - 1012.8 -
31/05:00pm - - - - - ESE 32 35 17 19 1012.8 - -
31/04:30pm - - - - - ESE 32 35 17 19 1012.8 - -
31/04:24pm - - - - - ESE 32 - 17 - - 1012.6 -
31/04:00pm - - - - - ESE 30 35 16 19 1012.6 - -
31/03:30pm - - - - - ESE 32 35 17 19 1012.6 - -
31/03:24pm - - - - - ESE 30 - 16 - - 1012.5 -
31/03:00pm - - - - - ESE 30 33 16 18 1012.7 - -
31/02:30pm - - - - - SE 32 35 17 19 1012.9 - -
31/02:24pm - - - - - ESE 30 - 16 - - 1012.9 -
31/02:00pm - - - - - ESE 32 35 17 19 1013.2 - -
31/01:30pm - - - - - ESE 30 33 16 18 1013.8 - -
31/01:24pm - - - - - ESE 30 - 16 - - 1013.8 -
31/01:00pm - - - - - SE 30 35 16 19 1014.2 - -
31/12:30pm - - - - - ESE 30 35 16 19 1014.6 - -
31/12:24pm - - - - - ESE 30 - 16 - - 1014.6 -
31/12:00pm - - - - - ESE 30 35 16 19 1015.1 - -
31/11:30am - - - - - ESE 28 35 15 19 1015.6 - -
31/11:24am - - - - - ESE 28 - 15 - - 1015.6 -
31/11:00am - - - - - ESE 30 33 16 18 1015.8 - -
31/10:30am - - - - - ESE 32 39 17 21 1015.9 - -
31/10:24am - - - - - ESE 32 - 17 - - 1015.8 -
31/10:00am - - - - - ESE 32 35 17 19 1016.1 - -
31/09:30am - - - - - ESE 33 39 18 21 1016.1 - -
31/09:24am - - - - - ESE 33 - 18 - - 1016.0 -
31/09:00am - - - - - ESE 33 39 18 21 1015.9 - -
31/08:30am - - - - - ESE 33 37 18 20 1015.7 - -
31/08:24am - - - - - ESE 33 - 18 - - 1015.6 -
31/08:00am - - - - - ESE 35 39 19 21 1015.6 - -
31/07:30am - - - - - ESE 33 39 18 21 1015.3 - -
31/07:24am - - - - - ESE 33 - 18 - - 1015.1 -
31/07:00am - - - - - ESE 33 39 18 21 1014.9 - -
31/06:30am - - - - - ESE 35 41 19 22 1014.4 - -
31/06:24am - - - - - ESE 35 - 19 - - 1014.3 -
31/06:00am - - - - - ESE 35 39 19 21 1014.3 - -
31/05:30am - - - - - ESE 33 39 18 21 1014.0 - -
31/05:24am - - - - - ESE 33 - 18 - - 1013.8 -
31/05:00am - - - - - ESE 33 39 18 21 1013.8 - -
31/04:30am - - - - - ESE 35 41 19 22 1013.6 - -
31/04:24am - - - - - ESE 37 - 20 - - 1013.4 -
31/04:00am - - - - - SE 37 41 20 22 1013.6 - -
31/03:30am - - - - - SE 37 43 20 23 1013.6 - -
31/03:24am - - - - - ESE 35 - 19 - - 1013.5 -
31/03:00am - - - - - ESE 35 39 19 21 1013.6 - -
31/02:30am - - - - - SE 35 41 19 22 1014.0 - -
31/02:24am - - - - - SE 37 - 20 - - 1014.0 -
31/02:00am - - - - - SE 37 44 20 24 1014.4 - -
31/01:30am - - - - - SE 39 44 21 24 1014.7 - -
31/01:24am - - - - - SE 39 - 21 - - 1014.6 -
31/01:00am - - - - - ESE 37 41 20 22 1015.0 - -
31/12:30am - - - - - SE 37 50 20 27 1015.4 - -
31/12:24am - - - - - ESE 41 - 22 - - 1015.3 -
31/12:00am - - - - - ESE 33 41 18 22 1015.6 - -
 
Date/Time
EST
Temp
°C
App
Temp
°C
Dew
Point
Rel
Hum
%
Delta-T
°C
Wind Press
QNH
hPa
Press
MSL
hPa
Rain
since 9 am
mm
Dir
 
Spd
km/h
Gust
km/h
Spd
kts
Gust
kts
30/11:30pm - - - - - SE 33 37 18 20 1016.0 - -
30/11:24pm - - - - - SE 35 - 19 - - 1015.9 -
30/11:00pm - - - - - ESE 35 39 19 21 1016.2 - -
30/10:30pm - - - - - ESE 37 43 20 23 1016.4 - -
30/10:24pm - - - - - ESE 37 - 20 - - 1016.4 -
30/10:00pm - - - - - ESE 35 41 19 22 1016.7 - -
30/09:30pm - - - - - ESE 37 43 20 23 1016.6 - -
30/09:24pm - - - - - ESE 37 - 20 - - 1016.5 -
30/09:00pm - - - - - ESE 37 43 20 23 1016.4 - -
30/08:30pm - - - - - ESE 39 44 21 24 1016.3 - -
30/08:24pm - - - - - ESE 39 - 21 - - 1016.2 -
30/08:00pm - - - - - ESE 41 46 22 25 1016.0 - -
30/07:30pm - - - - - SE 37 41 20 22 1015.8 - -
30/07:24pm - - - - - SE 37 - 20 - - 1015.6 -
30/07:00pm - - - - - SE 37 43 20 23 1015.5 - -
30/06:30pm - - - - - SE 35 39 19 21 1015.2 - -
30/06:24pm - - - - - ESE 35 - 19 - - 1015.1 -
30/06:00pm - - - - - ESE 32 35 17 19 1015.0 - -
30/05:30pm - - - - - ESE 33 41 18 22 1014.7 - -
30/05:24pm - - - - - ESE 33 - 18 - - 1014.6 -
30/05:00pm - - - - - ESE 32 37 17 20 1014.5 - -
30/04:30pm - - - - - ESE 33 39 18 21 1014.2 - -
30/04:24pm - - - - - ESE 33 - 18 - - 1014.0 -
30/04:00pm - - - - - ESE 35 37 19 20 1013.9 - -
30/03:30pm - - - - - ESE 33 39 18 21 1014.0 - -
30/03:24pm - - - - - ESE 33 - 18 - - 1013.9 -
30/03:00pm - - - - - ESE 32 37 17 20 1013.9 - -
30/02:30pm - - - - - ESE 33 39 18 21 1014.1 - -
30/02:24pm - - - - - ESE 33 - 18 - - 1014.0 -
30/02:00pm - - - - - ESE 33 39 18 21 1014.2 - -
30/01:30pm - - - - - ESE 33 37 18 20 1014.5 - -
30/01:24pm - - - - - ESE 33 - 18 - - 1014.5 -
30/01:00pm - - - - - ESE 37 43 20 23 1014.9 - -
30/12:30pm - - - - - ESE 35 41 19 22 1015.2 - -
30/12:24pm - - - - - ESE 35 - 19 - - 1015.2 -
30/12:00pm - - - - - ESE 35 41 19 22 1015.6 - -
30/11:30am - - - - - ESE 37 43 20 23 1016.1 - -
30/11:24am - - - - - ESE 37 - 20 - - 1016.2 -
30/11:00am - - - - - ESE 37 43 20 23 1016.5 - -
30/10:30am - - - - - ESE 39 44 21 24 1016.7 - -
30/10:24am - - - - - ESE 37 - 20 - - 1016.6 -
30/10:00am - - - - - ESE 37 46 20 25 1016.8 - -
30/09:30am - - - - - ESE 39 44 21 24 1016.6 - -
30/09:24am - - - - - ESE 37 - 20 - - 1016.5 -
30/09:00am - - - - - ESE 39 46 21 25 1016.6 - -
30/08:30am - - - - - ESE 37 43 20 23 1016.6 - -
30/08:24am - - - - - ESE 37 - 20 - - 1016.4 -
30/08:00am - - - - - ESE 35 43 19 23 1016.3 - -
30/07:30am - - - - - ESE 33 41 18 22 1015.8 - -
30/07:24am - - - - - ESE 32 - 17 - - 1015.6 -
30/07:00am - - - - - ESE 33 39 18 21 1015.5 - -
30/06:30am - - - - - ESE 35 39 19 21 1015.3 - -
30/06:24am - - - - - ESE 35 - 19 - - 1015.1 -
30/06:00am - - - - - SE 33 37 18 20 1015.1 - -
30/05:30am - - - - - SE 33 41 18 22 1014.8 - -
30/05:24am - - - - - ESE 35 - 19 - - 1014.6 -
30/05:00am - - - - - ESE 33 41 18 22 1014.6 - -
30/04:30am - - - - - ESE 35 39 19 21 1014.5 - -
30/04:24am - - - - - ESE 35 - 19 - - 1014.4 -
30/04:00am - - - - - ESE 35 39 19 21 1014.3 - -
30/03:30am - - - - - ESE 37 43 20 23 1014.1 - -
30/03:24am - - - - - ESE 37 - 20 - - 1014.0 -
30/03:00am - - - - - ESE 39 44 21 24 1014.1 - -
30/02:30am - - - - - ESE 39 44 21 24 1014.5 - -
30/02:24am - - - - - ESE 39 - 21 - - 1014.5 -
30/02:00am - - - - - ESE 37 44 20 24 1014.7 - -
30/01:30am - - - - - ESE 41 46 22 25 1015.1 - -
30/01:24am - - - - - ESE 41 - 22 - - 1015.0 -
30/01:00am - - - - - ESE 39 46 21 25 1015.4 - -
30/12:30am - - - - - ESE 37 43 20 23 1015.8 - -
30/12:24am - - - - - ESE 35 - 19 - - 1015.8 -
30/12:00am - - - - - ESE 33 39 18 21 1016.1 - -
 
Date/Time
EST
Temp
°C
App
Temp
°C
Dew
Point
Rel
Hum
%
Delta-T
°C
Wind Press
QNH
hPa
Press
MSL
hPa
Rain
since 9 am
mm
Dir
 
Spd
km/h
Gust
km/h
Spd
kts
Gust
kts
29/11:30pm - - - - - SE 33 39 18 21 1016.4 - -
29/11:24pm - - - - - SE 33 - 18 - - 1016.3 -
29/11:00pm - - - - - ESE 35 43 19 23 1016.5 - -
29/10:30pm - - - - - SE 35 41 19 22 1016.7 - -
29/10:24pm - - - - - ESE 35 - 19 - - 1016.6 -
29/10:00pm - - - - - SE 33 39 18 21 1016.8 - -
29/09:30pm - - - - - SE 35 41 19 22 1016.7 - -
29/09:24pm - - - - - SE 37 - 20 - - 1016.6 -
29/09:00pm - - - - - SE 39 43 21 23 1016.5 - -
29/08:30pm - - - - - SE 37 44 20 24 1016.6 - -
29/08:24pm - - - - - SE 39 - 21 - - 1016.3 -
29/08:00pm - - - - - SE 39 46 21 25 1016.3 - -
29/07:30pm - - - - - SE 39 43 21 23 1016.1 - -
29/07:24pm - - - - - SE 39 - 21 - - 1016.0 -
29/07:00pm - - - - - ESE 39 44 21 24 1015.9 - -
29/06:30pm - - - - - ESE 39 46 21 25 1015.5 - -
29/06:24pm - - - - - SE 37 - 20 - - 1015.4 -
29/06:00pm - - - - - ESE 41 46 22 25 1015.1 - -
29/05:30pm - - - - - ESE 37 44 20 24 1014.6 - -
29/05:24pm - - - - - SE 39 - 21 - - 1014.5 -
29/05:00pm - - - - - ESE 33 41 18 22 1014.4 - -
29/04:30pm - - - - - E 35 41 19 22 1014.3 - -
29/04:24pm - - - - - E 35 - 19 - - 1014.0 -
29/04:00pm - - - - - E 37 43 20 23 1014.1 - -
29/03:30pm - - - - - E 41 46 22 25 1014.0 - -
29/03:24pm - - - - - E 39 - 21 - - 1013.9 -
29/03:00pm - - - - - E 44 56 24 30 1014.1 - -
29/02:30pm - - - - - E 35 41 19 22 1014.1 - -
29/02:24pm - - - - - E 35 - 19 - - 1014.0 -
29/02:00pm - - - - - E 41 46 22 25 1014.4 - -
29/01:52pm - - - - - E 39 46 21 25 1014.4 - -
29/01:30pm - - - - - SE 35 43 19 23 1014.6 - -
29/01:24pm - - - - - SE 35 - 19 - - 1014.6 -
29/01:16pm - - - - - SE 39 46 21 25 1014.9 - -
29/01:00pm - - - - - E 35 48 19 26 1014.8 - -
29/12:47pm - - - - - E 28 44 15 24 1015.2 - -
29/12:30pm - - - - - SE 37 43 20 23 1015.3 - -
29/12:24pm - - - - - SE 37 - 20 - - 1015.3 -
29/12:00pm - - - - - SE 39 46 21 25 1015.6 - -
29/11:30am - - - - - SE 39 46 21 25 1015.9 - -
29/11:24am - - - - - SE 37 - 20 - - 1015.9 -
29/11:00am - - - - - SE 37 43 20 23 1016.2 - -
29/10:30am - - - - - ESE 33 37 18 20 1016.6 - -
29/10:24am - - - - - SE 33 - 18 - - 1016.6 -
29/10:00am - - - - - ESE 35 39 19 21 1016.6 - -
29/09:30am - - - - - ESE 37 43 20 23 1016.6 - -
29/09:24am - - - - - ESE 37 - 20 - - 1016.5 -
29/09:00am - - - - - ESE 35 43 19 23 1016.4 - -
29/08:30am - - - - - ESE 32 37 17 20 1016.2 - -
29/08:24am - - - - - ESE 33 - 18 - - 1016.0 -

Other Formats:

Comma delimited format used in spreadsheet applications
http://www.bom.gov.au/fwo/IDQ60801/IDQ60801.94290.axf

JavaScript Object Notation format (JSON) in row-major order
http://www.bom.gov.au/fwo/IDQ60801/IDQ60801.94290.json